sensor_id;sensor_type;location;lat;lon;timestamp;P1;durP1;ratioP1;P2;durP2;ratioP2
10063;SDS011;5071;52.360;13.134;2022-11-28T00:01:27;20.03;;;8.43;;
10063;SDS011;5071;52.360;13.134;2022-11-28T00:06:36;22.40;;;9.37;;
10063;SDS011;5071;52.360;13.134;2022-11-28T00:11:40;17.87;;;9.77;;
10063;SDS011;5071;52.360;13.134;2022-11-28T00:16:43;18.23;;;11.00;;
10063;SDS011;5071;52.360;13.134;2022-11-28T00:21:47;20.10;;;8.77;;
10063;SDS011;5071;52.360;13.134;2022-11-28T00:26:49;20.47;;;9.03;;
10063;SDS011;5071;52.360;13.134;2022-11-28T00:31:51;19.77;;;8.77;;
10063;SDS011;5071;52.360;13.134;2022-11-28T00:36:54;21.47;;;9.30;;
10063;SDS011;5071;52.360;13.134;2022-11-28T00:41:57;19.30;;;9.80;;
10063;SDS011;5071;52.360;13.134;2022-11-28T00:46:58;14.77;;;8.10;;
10063;SDS011;5071;52.360;13.134;2022-11-28T00:52:01;15.20;;;8.93;;
10063;SDS011;5071;52.360;13.134;2022-11-28T00:57:04;15.73;;;7.70;;
10063;SDS011;5071;52.360;13.134;2022-11-28T01:02:06;14.83;;;8.27;;
10063;SDS011;5071;52.360;13.134;2022-11-28T01:07:09;13.73;;;8.53;;
10063;SDS011;5071;52.360;13.134;2022-11-28T01:12:12;19.43;;;9.50;;
10063;SDS011;5071;52.360;13.134;2022-11-28T01:17:14;19.23;;;8.97;;
10063;SDS011;5071;52.360;13.134;2022-11-28T01:22:17;17.07;;;8.00;;
10063;SDS011;5071;52.360;13.134;2022-11-28T01:27:19;18.83;;;8.77;;
10063;SDS011;5071;52.360;13.134;2022-11-28T01:32:21;17.63;;;9.47;;
10063;SDS011;5071;52.360;13.134;2022-11-28T01:37:25;17.93;;;8.33;;
10063;SDS011;5071;52.360;13.134;2022-11-28T01:42:29;18.87;;;8.50;;
10063;SDS011;5071;52.360;13.134;2022-11-28T01:47:31;17.33;;;8.20;;
10063;SDS011;5071;52.360;13.134;2022-11-28T01:52:37;19.17;;;8.57;;
10063;SDS011;5071;52.360;13.134;2022-11-28T01:57:44;17.23;;;7.63;;
10063;SDS011;5071;52.360;13.134;2022-11-28T02:02:47;14.13;;;8.20;;
10063;SDS011;5071;52.360;13.134;2022-11-28T02:07:51;13.20;;;7.40;;
10063;SDS011;5071;52.360;13.134;2022-11-28T02:13:04;15.80;;;7.17;;
10063;SDS011;5071;52.360;13.134;2022-11-28T02:18:17;14.83;;;9.17;;
10063;SDS011;5071;52.360;13.134;2022-11-28T02:23:34;17.47;;;8.43;;
10063;SDS011;5071;52.360;13.134;2022-11-28T02:34:36;22.47;;;9.50;;
10063;SDS011;5071;52.360;13.134;2022-11-28T02:39:50;24.03;;;9.03;;
10063;SDS011;5071;52.360;13.134;2022-11-28T02:45:03;20.80;;;10.00;;
10063;SDS011;5071;52.360;13.134;2022-11-28T02:50:12;15.60;;;9.07;;
10063;SDS011;5071;52.360;13.134;2022-11-28T02:55:19;15.23;;;8.60;;
10063;SDS011;5071;52.360;13.134;2022-11-28T03:00:24;16.67;;;8.77;;
10063;SDS011;5071;52.360;13.134;2022-11-28T03:05:31;15.83;;;9.10;;
10063;SDS011;5071;52.360;13.134;2022-11-28T03:10:42;15.67;;;8.80;;
10063;SDS011;5071;52.360;13.134;2022-11-28T03:15:53;19.53;;;9.23;;
10063;SDS011;5071;52.360;13.134;2022-11-28T03:21:06;20.53;;;10.17;;
10063;SDS011;5071;52.360;13.134;2022-11-28T03:26:15;17.10;;;8.27;;
10063;SDS011;5071;52.360;13.134;2022-11-28T03:31:23;16.10;;;8.50;;
10063;SDS011;5071;52.360;13.134;2022-11-28T03:36:34;20.93;;;9.03;;
10063;SDS011;5071;52.360;13.134;2022-11-28T03:41:42;15.97;;;8.90;;
10063;SDS011;5071;52.360;13.134;2022-11-28T03:46:49;16.47;;;9.23;;
10063;SDS011;5071;52.360;13.134;2022-11-28T03:51:55;18.47;;;8.83;;
10063;SDS011;5071;52.360;13.134;2022-11-28T03:57:03;16.50;;;8.27;;
10063;SDS011;5071;52.360;13.134;2022-11-28T04:02:13;18.83;;;9.10;;
10063;SDS011;5071;52.360;13.134;2022-11-28T04:07:22;14.83;;;8.57;;
10063;SDS011;5071;52.360;13.134;2022-11-28T04:12:32;14.30;;;8.07;;
10063;SDS011;5071;52.360;13.134;2022-11-28T04:17:47;16.87;;;8.43;;
10063;SDS011;5071;52.360;13.134;2022-11-28T04:22:56;16.83;;;8.50;;
10063;SDS011;5071;52.360;13.134;2022-11-28T04:28:05;20.23;;;9.77;;
10063;SDS011;5071;52.360;13.134;2022-11-28T04:33:11;17.27;;;9.17;;
10063;SDS011;5071;52.360;13.134;2022-11-28T04:38:16;19.00;;;8.53;;
10063;SDS011;5071;52.360;13.134;2022-11-28T04:43:20;16.67;;;8.53;;
10063;SDS011;5071;52.360;13.134;2022-11-28T04:48:26;14.83;;;8.73;;
10063;SDS011;5071;52.360;13.134;2022-11-28T04:53:38;16.73;;;8.67;;
10063;SDS011;5071;52.360;13.134;2022-11-28T04:58:45;19.90;;;9.50;;
10063;SDS011;5071;52.360;13.134;2022-11-28T05:03:50;16.43;;;8.47;;
10063;SDS011;5071;52.360;13.134;2022-11-28T05:08:54;17.63;;;9.00;;
10063;SDS011;5071;52.360;13.134;2022-11-28T05:13:57;20.17;;;8.60;;
10063;SDS011;5071;52.360;13.134;2022-11-28T05:18:59;15.50;;;7.80;;
10063;SDS011;5071;52.360;13.134;2022-11-28T05:24:03;17.73;;;8.60;;
10063;SDS011;5071;52.360;13.134;2022-11-28T05:29:05;17.97;;;7.97;;
10063;SDS011;5071;52.360;13.134;2022-11-28T05:34:07;17.20;;;8.43;;
10063;SDS011;5071;52.360;13.134;2022-11-28T05:39:11;15.53;;;8.47;;
10063;SDS011;5071;52.360;13.134;2022-11-28T05:44:13;14.57;;;8.90;;
10063;SDS011;5071;52.360;13.134;2022-11-28T05:49:15;18.07;;;9.07;;
10063;SDS011;5071;52.360;13.134;2022-11-28T05:54:19;17.37;;;8.17;;
10063;SDS011;5071;52.360;13.134;2022-11-28T05:59:21;16.50;;;9.37;;
10063;SDS011;5071;52.360;13.134;2022-11-28T06:04:23;16.37;;;8.93;;
10063;SDS011;5071;52.360;13.134;2022-11-28T06:09:27;15.10;;;7.90;;
10063;SDS011;5071;52.360;13.134;2022-11-28T06:14:29;17.50;;;7.80;;
10063;SDS011;5071;52.360;13.134;2022-11-28T06:19:31;16.57;;;8.50;;
10063;SDS011;5071;52.360;13.134;2022-11-28T06:24:34;14.33;;;8.20;;
10063;SDS011;5071;52.360;13.134;2022-11-28T06:29:36;13.97;;;7.47;;
10063;SDS011;5071;52.360;13.134;2022-11-28T06:34:38;19.57;;;9.30;;
10063;SDS011;5071;52.360;13.134;2022-11-28T06:39:41;14.33;;;8.13;;
10063;SDS011;5071;52.360;13.134;2022-11-28T06:44:44;14.23;;;8.27;;
10063;SDS011;5071;52.360;13.134;2022-11-28T06:49:46;21.00;;;10.00;;
10063;SDS011;5071;52.360;13.134;2022-11-28T06:54:50;16.77;;;8.63;;
10063;SDS011;5071;52.360;13.134;2022-11-28T06:59:52;16.43;;;8.77;;
10063;SDS011;5071;52.360;13.134;2022-11-28T07:04:54;17.80;;;9.07;;
10063;SDS011;5071;52.360;13.134;2022-11-28T07:09:58;16.13;;;8.23;;
10063;SDS011;5071;52.360;13.134;2022-11-28T07:15:00;20.50;;;10.07;;
10063;SDS011;5071;52.360;13.134;2022-11-28T07:20:02;17.17;;;8.73;;
10063;SDS011;5071;52.360;13.134;2022-11-28T07:25:06;15.90;;;8.60;;
10063;SDS011;5071;52.360;13.134;2022-11-28T07:30:09;17.93;;;8.90;;
10063;SDS011;5071;52.360;13.134;2022-11-28T07:35:11;18.90;;;9.17;;
10063;SDS011;5071;52.360;13.134;2022-11-28T07:45:18;17.57;;;9.33;;
10063;SDS011;5071;52.360;13.134;2022-11-28T07:50:20;18.47;;;8.80;;
10063;SDS011;5071;52.360;13.134;2022-11-28T07:55:23;21.87;;;9.27;;
10063;SDS011;5071;52.360;13.134;2022-11-28T08:00:26;16.63;;;8.80;;
10063;SDS011;5071;52.360;13.134;2022-11-28T08:05:28;22.40;;;10.10;;
10063;SDS011;5071;52.360;13.134;2022-11-28T08:10:32;17.53;;;8.90;;
10063;SDS011;5071;52.360;13.134;2022-11-28T08:15:35;17.93;;;9.73;;
10063;SDS011;5071;52.360;13.134;2022-11-28T08:20:37;17.23;;;8.93;;
10063;SDS011;5071;52.360;13.134;2022-11-28T08:25:41;17.67;;;9.57;;
10063;SDS011;5071;52.360;13.134;2022-11-28T08:30:43;20.10;;;10.00;;
10063;SDS011;5071;52.360;13.134;2022-11-28T08:35:45;20.73;;;9.70;;
10063;SDS011;5071;52.360;13.134;2022-11-28T08:40:48;21.00;;;8.73;;
10063;SDS011;5071;52.360;13.134;2022-11-28T08:45:50;19.80;;;9.63;;
10063;SDS011;5071;52.360;13.134;2022-11-28T08:50:53;17.37;;;8.47;;
10063;SDS011;5071;52.360;13.134;2022-11-28T08:55:57;18.93;;;10.23;;
10063;SDS011;5071;52.360;13.134;2022-11-28T09:01:00;19.03;;;10.10;;
10063;SDS011;5071;52.360;13.134;2022-11-28T09:06:02;20.63;;;8.90;;
10063;SDS011;5071;52.360;13.134;2022-11-28T09:11:06;16.20;;;8.87;;
10063;SDS011;5071;52.360;13.134;2022-11-28T09:16:09;15.90;;;8.10;;
10063;SDS011;5071;52.360;13.134;2022-11-28T09:21:12;22.23;;;9.77;;
10063;SDS011;5071;52.360;13.134;2022-11-28T09:26:18;17.23;;;10.13;;
10063;SDS011;5071;52.360;13.134;2022-11-28T09:31:21;16.37;;;9.53;;
10063;SDS011;5071;52.360;13.134;2022-11-28T09:36:23;16.73;;;9.30;;
10063;SDS011;5071;52.360;13.134;2022-11-28T09:41:33;17.00;;;8.37;;
10063;SDS011;5071;52.360;13.134;2022-11-28T09:46:59;19.53;;;7.93;;
10063;SDS011;5071;52.360;13.134;2022-11-28T09:52:05;15.50;;;8.70;;
10063;SDS011;5071;52.360;13.134;2022-11-28T09:57:20;13.67;;;8.77;;
10063;SDS011;5071;52.360;13.134;2022-11-28T10:02:32;15.03;;;7.67;;
10063;SDS011;5071;52.360;13.134;2022-11-28T10:07:42;14.37;;;8.13;;
10063;SDS011;5071;52.360;13.134;2022-11-28T10:12:58;15.43;;;8.73;;
10063;SDS011;5071;52.360;13.134;2022-11-28T10:18:10;15.77;;;7.83;;
10063;SDS011;5071;52.360;13.134;2022-11-28T10:23:29;19.00;;;9.33;;
10063;SDS011;5071;52.360;13.134;2022-11-28T10:28:37;16.73;;;8.87;;
10063;SDS011;5071;52.360;13.134;2022-11-28T10:33:44;19.20;;;9.53;;
10063;SDS011;5071;52.360;13.134;2022-11-28T10:38:49;15.87;;;8.03;;
10063;SDS011;5071;52.360;13.134;2022-11-28T10:43:53;16.60;;;8.33;;
10063;SDS011;5071;52.360;13.134;2022-11-28T10:49:01;18.70;;;8.57;;
10063;SDS011;5071;52.360;13.134;2022-11-28T10:54:16;14.07;;;8.00;;
10063;SDS011;5071;52.360;13.134;2022-11-28T10:59:28;16.27;;;8.73;;
10063;SDS011;5071;52.360;13.134;2022-11-28T11:04:37;19.00;;;8.93;;
10063;SDS011;5071;52.360;13.134;2022-11-28T11:09:41;15.20;;;8.70;;
10063;SDS011;5071;52.360;13.134;2022-11-28T11:14:45;19.57;;;8.70;;
10063;SDS011;5071;52.360;13.134;2022-11-28T11:19:47;13.50;;;7.57;;
10063;SDS011;5071;52.360;13.134;2022-11-28T11:25:05;17.10;;;8.40;;
10063;SDS011;5071;52.360;13.134;2022-11-28T11:30:17;18.43;;;8.37;;
10063;SDS011;5071;52.360;13.134;2022-11-28T11:35:27;17.40;;;8.03;;
10063;SDS011;5071;52.360;13.134;2022-11-28T11:40:32;13.60;;;7.80;;
10063;SDS011;5071;52.360;13.134;2022-11-28T11:45:36;16.83;;;7.67;;
10063;SDS011;5071;52.360;13.134;2022-11-28T11:50:38;13.43;;;7.57;;
10063;SDS011;5071;52.360;13.134;2022-11-28T11:55:54;14.93;;;8.37;;
10063;SDS011;5071;52.360;13.134;2022-11-28T12:01:01;16.37;;;7.93;;
10063;SDS011;5071;52.360;13.134;2022-11-28T12:06:09;13.00;;;7.47;;
10063;SDS011;5071;52.360;13.134;2022-11-28T12:11:17;13.00;;;7.43;;
10063;SDS011;5071;52.360;13.134;2022-11-28T12:16:31;17.83;;;7.80;;
10063;SDS011;5071;52.360;13.134;2022-11-28T12:21:51;14.77;;;7.87;;
10063;SDS011;5071;52.360;13.134;2022-11-28T12:27:03;16.67;;;8.47;;
10063;SDS011;5071;52.360;13.134;2022-11-28T12:32:19;15.33;;;7.97;;
10063;SDS011;5071;52.360;13.134;2022-11-28T12:44:00;19.70;;;7.73;;
10063;SDS011;5071;52.360;13.134;2022-11-28T12:49:15;13.50;;;7.07;;
10063;SDS011;5071;52.360;13.134;2022-11-28T12:54:24;13.67;;;8.43;;
10063;SDS011;5071;52.360;13.134;2022-11-28T12:59:37;18.10;;;7.37;;
10063;SDS011;5071;52.360;13.134;2022-11-28T13:04:55;15.17;;;7.80;;
10063;SDS011;5071;52.360;13.134;2022-11-28T13:10:12;14.27;;;7.40;;
10063;SDS011;5071;52.360;13.134;2022-11-28T13:15:19;14.63;;;8.13;;
10063;SDS011;5071;52.360;13.134;2022-11-28T13:20:34;11.90;;;7.13;;
10063;SDS011;5071;52.360;13.134;2022-11-28T13:25:42;14.17;;;6.40;;
10063;SDS011;5071;52.360;13.134;2022-11-28T13:30:51;13.13;;;7.90;;
10063;SDS011;5071;52.360;13.134;2022-11-28T13:36:06;13.70;;;7.17;;
10063;SDS011;5071;52.360;13.134;2022-11-28T13:41:33;15.73;;;7.63;;
10063;SDS011;5071;52.360;13.134;2022-11-28T13:47:11;13.87;;;7.57;;
10063;SDS011;5071;52.360;13.134;2022-11-28T13:57:35;10.17;;;6.63;;
10063;SDS011;5071;52.360;13.134;2022-11-28T14:02:39;12.20;;;7.47;;
10063;SDS011;5071;52.360;13.134;2022-11-28T14:07:46;14.80;;;7.07;;
10063;SDS011;5071;52.360;13.134;2022-11-28T14:12:52;16.13;;;7.77;;
10063;SDS011;5071;52.360;13.134;2022-11-28T14:18:10;12.90;;;7.40;;
10063;SDS011;5071;52.360;13.134;2022-11-28T14:23:49;13.03;;;7.07;;
10063;SDS011;5071;52.360;13.134;2022-11-28T14:29:01;13.60;;;7.57;;
10063;SDS011;5071;52.360;13.134;2022-11-28T14:34:06;16.10;;;7.93;;
10063;SDS011;5071;52.360;13.134;2022-11-28T14:39:33;14.73;;;7.70;;
10063;SDS011;5071;52.360;13.134;2022-11-28T14:44:41;15.03;;;7.87;;
10063;SDS011;5071;52.360;13.134;2022-11-28T14:49:47;18.20;;;8.90;;
10063;SDS011;5071;52.360;13.134;2022-11-28T14:54:51;18.53;;;9.27;;
10063;SDS011;5071;52.360;13.134;2022-11-28T14:59:55;15.90;;;9.43;;
10063;SDS011;5071;52.360;13.134;2022-11-28T15:05:02;20.10;;;9.37;;
10063;SDS011;5071;52.360;13.134;2022-11-28T15:10:17;15.70;;;9.00;;
10063;SDS011;5071;52.360;13.134;2022-11-28T15:15:24;18.57;;;9.80;;
10063;SDS011;5071;52.360;13.134;2022-11-28T15:20:27;18.47;;;9.10;;
10063;SDS011;5071;52.360;13.134;2022-11-28T15:25:34;16.47;;;8.83;;
10063;SDS011;5071;52.360;13.134;2022-11-28T15:30:36;22.10;;;9.93;;
10063;SDS011;5071;52.360;13.134;2022-11-28T15:35:54;19.87;;;10.37;;
10063;SDS011;5071;52.360;13.134;2022-11-28T15:41:00;18.57;;;9.43;;
10063;SDS011;5071;52.360;13.134;2022-11-28T15:46:02;21.17;;;9.67;;
10063;SDS011;5071;52.360;13.134;2022-11-28T15:51:04;15.60;;;8.97;;
10063;SDS011;5071;52.360;13.134;2022-11-28T15:56:09;19.50;;;9.63;;
10063;SDS011;5071;52.360;13.134;2022-11-28T16:01:14;21.83;;;10.53;;
10063;SDS011;5071;52.360;13.134;2022-11-28T16:06:20;19.43;;;10.43;;
10063;SDS011;5071;52.360;13.134;2022-11-28T16:11:27;21.53;;;10.40;;
10063;SDS011;5071;52.360;13.134;2022-11-28T16:16:31;17.90;;;9.70;;
10063;SDS011;5071;52.360;13.134;2022-11-28T16:21:39;19.33;;;9.30;;
10063;SDS011;5071;52.360;13.134;2022-11-28T16:26:54;19.03;;;9.97;;
10063;SDS011;5071;52.360;13.134;2022-11-28T16:32:05;16.77;;;9.83;;
10063;SDS011;5071;52.360;13.134;2022-11-28T16:37:08;18.27;;;10.77;;
10063;SDS011;5071;52.360;13.134;2022-11-28T16:42:14;20.63;;;11.00;;
10063;SDS011;5071;52.360;13.134;2022-11-28T16:47:22;17.83;;;9.43;;
10063;SDS011;5071;52.360;13.134;2022-11-28T16:52:46;21.53;;;10.90;;
10063;SDS011;5071;52.360;13.134;2022-11-28T16:57:51;19.90;;;11.03;;
10063;SDS011;5071;52.360;13.134;2022-11-28T17:02:57;23.17;;;11.63;;
10063;SDS011;5071;52.360;13.134;2022-11-28T17:08:00;25.87;;;12.17;;
10063;SDS011;5071;52.360;13.134;2022-11-28T17:13:03;21.67;;;11.40;;
10063;SDS011;5071;52.360;13.134;2022-11-28T17:18:05;22.87;;;11.67;;
10063;SDS011;5071;52.360;13.134;2022-11-28T17:23:07;25.97;;;12.37;;
10063;SDS011;5071;52.360;13.134;2022-11-28T17:28:10;23.33;;;12.57;;
10063;SDS011;5071;52.360;13.134;2022-11-28T17:33:21;23.23;;;11.50;;
10063;SDS011;5071;52.360;13.134;2022-11-28T17:38:23;23.90;;;13.33;;
10063;SDS011;5071;52.360;13.134;2022-11-28T17:43:27;26.93;;;12.90;;
10063;SDS011;5071;52.360;13.134;2022-11-28T17:48:29;24.13;;;12.37;;
10063;SDS011;5071;52.360;13.134;2022-11-28T17:53:31;29.03;;;13.63;;
10063;SDS011;5071;52.360;13.134;2022-11-28T17:58:35;23.90;;;12.03;;
10063;SDS011;5071;52.360;13.134;2022-11-28T18:03:37;29.63;;;13.73;;
10063;SDS011;5071;52.360;13.134;2022-11-28T18:08:39;25.90;;;12.17;;
10063;SDS011;5071;52.360;13.134;2022-11-28T18:13:43;31.27;;;15.13;;
10063;SDS011;5071;52.360;13.134;2022-11-28T18:18:45;24.10;;;12.80;;
10063;SDS011;5071;52.360;13.134;2022-11-28T18:23:48;31.17;;;14.10;;
10063;SDS011;5071;52.360;13.134;2022-11-28T18:28:52;34.30;;;14.00;;
10063;SDS011;5071;52.360;13.134;2022-11-28T18:33:54;27.70;;;14.23;;
10063;SDS011;5071;52.360;13.134;2022-11-28T18:39:03;29.13;;;13.33;;
10063;SDS011;5071;52.360;13.134;2022-11-28T18:44:09;31.20;;;15.40;;
10063;SDS011;5071;52.360;13.134;2022-11-28T18:49:12;26.57;;;14.17;;
10063;SDS011;5071;52.360;13.134;2022-11-28T18:54:14;28.13;;;13.63;;
10063;SDS011;5071;52.360;13.134;2022-11-28T18:59:23;24.17;;;13.53;;
10063;SDS011;5071;52.360;13.134;2022-11-28T19:04:24;26.93;;;13.73;;
10063;SDS011;5071;52.360;13.134;2022-11-28T19:09:26;30.33;;;15.33;;
10063;SDS011;5071;52.360;13.134;2022-11-28T19:14:30;30.03;;;14.73;;
10063;SDS011;5071;52.360;13.134;2022-11-28T19:19:31;25.10;;;13.53;;
10063;SDS011;5071;52.360;13.134;2022-11-28T19:24:33;35.80;;;15.83;;
10063;SDS011;5071;52.360;13.134;2022-11-28T19:29:36;27.23;;;14.33;;
10063;SDS011;5071;52.360;13.134;2022-11-28T19:34:38;29.43;;;13.60;;
10063;SDS011;5071;52.360;13.134;2022-11-28T19:39:40;29.77;;;15.17;;
10063;SDS011;5071;52.360;13.134;2022-11-28T19:44:44;41.10;;;15.77;;
10063;SDS011;5071;52.360;13.134;2022-11-28T19:49:46;29.50;;;15.00;;
10063;SDS011;5071;52.360;13.134;2022-11-28T19:54:48;35.83;;;15.97;;
10063;SDS011;5071;52.360;13.134;2022-11-28T19:59:52;34.00;;;15.00;;
10063;SDS011;5071;52.360;13.134;2022-11-28T20:04:53;32.20;;;15.03;;
10063;SDS011;5071;52.360;13.134;2022-11-28T20:09:56;36.07;;;15.30;;
10063;SDS011;5071;52.360;13.134;2022-11-28T20:15:00;33.80;;;16.77;;
10063;SDS011;5071;52.360;13.134;2022-11-28T20:20:03;38.40;;;17.40;;
10063;SDS011;5071;52.360;13.134;2022-11-28T20:25:07;32.37;;;15.63;;
10063;SDS011;5071;52.360;13.134;2022-11-28T20:30:11;31.87;;;16.07;;
10063;SDS011;5071;52.360;13.134;2022-11-28T20:35:14;34.93;;;17.30;;
10063;SDS011;5071;52.360;13.134;2022-11-28T20:40:16;30.50;;;16.97;;
10063;SDS011;5071;52.360;13.134;2022-11-28T20:45:19;41.63;;;17.77;;
10063;SDS011;5071;52.360;13.134;2022-11-28T20:50:22;35.77;;;16.83;;
10063;SDS011;5071;52.360;13.134;2022-11-28T20:55:24;35.10;;;17.43;;
10063;SDS011;5071;52.360;13.134;2022-11-28T21:00:31;34.20;;;15.93;;
10063;SDS011;5071;52.360;13.134;2022-11-28T21:05:33;31.00;;;16.83;;
10063;SDS011;5071;52.360;13.134;2022-11-28T21:10:35;40.63;;;17.67;;
10063;SDS011;5071;52.360;13.134;2022-11-28T21:15:39;31.50;;;15.73;;
10063;SDS011;5071;52.360;13.134;2022-11-28T21:20:42;31.63;;;16.47;;
10063;SDS011;5071;52.360;13.134;2022-11-28T21:25:45;32.87;;;16.97;;
10063;SDS011;5071;52.360;13.134;2022-11-28T21:30:49;34.13;;;15.73;;
10063;SDS011;5071;52.360;13.134;2022-11-28T21:35:52;37.17;;;16.90;;
10063;SDS011;5071;52.360;13.134;2022-11-28T21:40:54;29.70;;;15.87;;
10063;SDS011;5071;52.360;13.134;2022-11-28T21:46:01;31.27;;;15.63;;
10063;SDS011;5071;52.360;13.134;2022-11-28T21:51:04;35.30;;;16.23;;
10063;SDS011;5071;52.360;13.134;2022-11-28T21:56:07;33.23;;;16.20;;
10063;SDS011;5071;52.360;13.134;2022-11-28T22:01:12;29.83;;;16.37;;
10063;SDS011;5071;52.360;13.134;2022-11-28T22:06:15;31.33;;;16.00;;
10063;SDS011;5071;52.360;13.134;2022-11-28T22:11:18;32.87;;;17.00;;
10063;SDS011;5071;52.360;13.134;2022-11-28T22:16:23;32.83;;;16.70;;
10063;SDS011;5071;52.360;13.134;2022-11-28T22:21:27;34.37;;;15.10;;
10063;SDS011;5071;52.360;13.134;2022-11-28T22:26:49;31.87;;;16.43;;
10063;SDS011;5071;52.360;13.134;2022-11-28T22:31:53;37.37;;;17.80;;
10063;SDS011;5071;52.360;13.134;2022-11-28T22:36:57;27.90;;;15.33;;
10063;SDS011;5071;52.360;13.134;2022-11-28T22:42:00;30.17;;;15.30;;
10063;SDS011;5071;52.360;13.134;2022-11-28T22:47:04;27.43;;;15.97;;
10063;SDS011;5071;52.360;13.134;2022-11-28T22:52:06;33.33;;;16.00;;
10063;SDS011;5071;52.360;13.134;2022-11-28T22:57:08;31.00;;;15.80;;
10063;SDS011;5071;52.360;13.134;2022-11-28T23:02:11;28.67;;;14.67;;
10063;SDS011;5071;52.360;13.134;2022-11-28T23:07:14;32.87;;;15.27;;
10063;SDS011;5071;52.360;13.134;2022-11-28T23:12:16;30.43;;;15.37;;
10063;SDS011;5071;52.360;13.134;2022-11-28T23:17:19;27.03;;;14.80;;
10063;SDS011;5071;52.360;13.134;2022-11-28T23:22:21;31.07;;;16.97;;
10063;SDS011;5071;52.360;13.134;2022-11-28T23:27:24;31.07;;;15.20;;
10063;SDS011;5071;52.360;13.134;2022-11-28T23:32:27;30.30;;;15.10;;
10063;SDS011;5071;52.360;13.134;2022-11-28T23:37:29;30.47;;;15.87;;
10063;SDS011;5071;52.360;13.134;2022-11-28T23:42:32;25.50;;;14.63;;
10063;SDS011;5071;52.360;13.134;2022-11-28T23:47:35;29.07;;;14.70;;
10063;SDS011;5071;52.360;13.134;2022-11-28T23:52:37;28.73;;;15.47;;
10063;SDS011;5071;52.360;13.134;2022-11-28T23:57:39;31.20;;;16.10;;
